Today's 10 Minute Log



Time Temperature  Humidity  Dewpoint    Barometer Average speed Gust speed   Direction  Rain last min  Daily rain  Monthly rain Yearly rain Heatindex 
00:10       40.8      66       30.3      29.994      0.4           1.0           181         0.000        0.000        0.390        1.610      40.8
00:20       39.8      66       29.4      29.993      0.1           1.0           151         0.000        0.000        0.390        1.610      39.8
00:30       39.1      70       30.1      29.994      0.3           1.0           169         0.000        0.000        0.390        1.610      39.1
00:40       39.7      70       30.7      29.994      0.0           0.0           169         0.000        0.000        0.390        1.610      39.7
00:50       39.7      71       31.1      29.995      0.0           0.0           169         0.000        0.000        0.390        1.610      39.7
01:00       39.4      71       30.7      29.994      0.0           0.0           169         0.000        0.000        0.390        1.610      39.4
01:10       39.1      73       31.2      30.001      0.0           0.0           169         0.000        0.000        0.390        1.610      39.1
01:20       38.9      74       31.3      30.000      0.0           0.0           169         0.000        0.000        0.390        1.610      38.9
01:30       39.5      74       31.9      30.001      0.0           0.0           167         0.000        0.000        0.390        1.610      39.5
01:40       39.1      74       31.6      30.006      0.0           0.0           166         0.000        0.000        0.390        1.610      39.1
01:50       38.4      74       30.8      30.007      0.0           0.0           168         0.000        0.010        0.400        1.620      38.4
02:00       38.2      75       31.0      30.003      0.0           0.0           168         0.010        0.020        0.410        1.630      38.2
02:10       38.1      77       31.5      30.005      0.0           0.0           165         0.000        0.020        0.410        1.630      38.1
02:20       38.2      78       32.0      30.005      0.0           0.0           165         0.000        0.020        0.410        1.630      38.2
02:30       38.1      78       31.9      30.007      0.0           0.0           165         0.000        0.030        0.420        1.640      38.1
02:40       37.7      78       31.5      30.008      0.0           0.0           169         0.000        0.040        0.430        1.650      37.7
02:50       37.6      79       31.7      30.006      0.0           0.0           169         0.010        0.050        0.440        1.660      37.6
03:00       37.2      79       31.3      30.003      0.0           0.0           169         0.000        0.050        0.440        1.660      37.2
03:10       37.3      80       31.7      30.002      0.0           0.0           180         0.000        0.060        0.450        1.670      37.3
03:20       37.2      80       31.6      29.999      0.2           2.0           156         0.000        0.060        0.450        1.670      37.2